Time;durP1;ratioP1;P1;durP2;ratioP2;P2;SDS_P1;SDS_P2;PMS_P1;PMS_P2;Temp;Humidity;BMP_temperature;BMP_pressure;BME280_temperature;BME280_humidity;BME280_pressure;Samples;Min_cycle;Max_cycle;Signal;HPM_P1;HPM_P2
2023/02/12 00:00:11;;;;;;;41.33;20.02;;;6.90;1.00;;;;;;5031199;28;20399;-58
2023/02/12 00:02:37;;;;;;;38.47;18.83;;;6.60;1.00;;;;;;5029557;28;20410;-58
2023/02/12 00:05:03;;;;;;;41.03;19.35;;;6.60;1.00;;;;;;5030738;28;20407;-59
2023/02/12 00:07:30;;;;;;;42.27;20.07;;;6.60;1.00;;;;;;5030463;28;20399;-58
2023/02/12 00:09:56;;;;;;;39.83;19.00;;;6.60;1.00;;;;;;5031109;28;20415;-59
2023/02/12 00:12:21;;;;;;;38.13;20.45;;;6.70;1.00;;;;;;5030445;28;20879;-58
2023/02/12 00:14:47;;;;;;;40.60;20.73;;;7.80;1.00;;;;;;5031201;28;20406;-58
2023/02/12 00:17:12;;;;;;;37.90;20.20;;;6.80;1.00;;;;;;5030722;28;20422;-58
2023/02/12 00:19:38;;;;;;;41.33;20.27;;;6.90;1.00;;;;;;5030710;28;20833;-58
2023/02/12 00:22:04;;;;;;;39.63;18.38;;;6.80;1.00;;;;;;5031263;28;20430;-59
2023/02/12 00:24:29;;;;;;;36.73;19.47;;;6.80;1.00;;;;;;5030491;28;20865;-59
2023/02/12 00:26:55;;;;;;;38.15;19.08;;;6.90;1.00;;;;;;5030918;28;20423;-58
2023/02/12 00:29:20;;;;;;;36.60;19.40;;;6.90;1.00;;;;;;5030732;28;20418;-59
2023/02/12 00:31:47;;;;;;;35.77;19.03;;;6.90;1.00;;;;;;5030856;28;21111;-58
2023/02/12 00:34:13;;;;;;;36.10;18.50;;;6.80;1.00;;;;;;5031177;28;20442;-58
2023/02/12 00:36:38;;;;;;;39.20;18.23;;;7.80;1.00;;;;;;5030278;28;20415;-58
2023/02/12 00:39:05;;;;;;;38.93;19.80;;;7.60;1.00;;;;;;5030973;28;20474;-58
2023/02/12 00:41:31;;;;;;;34.60;18.30;;;6.80;1.00;;;;;;5029806;28;20827;-58
2023/02/12 00:43:56;;;;;;;40.87;21.00;;;6.80;1.00;;;;;;5031299;28;20462;-58
2023/02/12 00:46:22;;;;;;;49.45;24.25;;;7.40;1.00;;;;;;5030341;28;20411;-58
2023/02/12 00:48:48;;;;;;;43.20;20.83;;;7.80;1.00;;;;;;5030896;28;20399;-58
2023/02/12 00:51:14;;;;;;;37.25;18.80;;;7.20;1.00;;;;;;5030402;28;20905;-58
2023/02/12 00:53:40;;;;;;;43.78;18.73;;;7.20;1.00;;;;;;5030032;28;20589;-58
2023/02/12 00:56:05;;;;;;;41.30;20.33;;;7.20;1.00;;;;;;5030779;28;20407;-58
2023/02/12 00:58:31;;;;;;;40.05;18.38;;;7.10;1.00;;;;;;5030389;28;20726;-59
2023/02/12 01:00:57;;;;;;;36.70;17.87;;;7.00;1.00;;;;;;5030271;28;20406;-59
2023/02/12 01:03:23;;;;;;;39.13;18.08;;;7.00;1.00;;;;;;5029844;28;20469;-58
2023/02/12 01:05:49;;;;;;;37.75;17.13;;;6.80;1.00;;;;;;5030361;28;20437;-58
2023/02/12 01:08:16;;;;;;;38.33;18.67;;;8.60;1.00;;;;;;5029572;28;20399;-58
2023/02/12 01:10:43;;;;;;;35.72;17.92;;;6.60;1.00;;;;;;5030065;28;20913;-59
2023/02/12 01:13:13;;;;;;;35.42;16.50;;;7.50;1.00;;;;;;5030421;28;20541;-58
2023/02/12 01:15:38;;;;;;;34.20;17.08;;;6.60;1.00;;;;;;5021409;28;20957;-59
2023/02/12 01:18:04;;;;;;;36.50;17.77;;;6.70;1.00;;;;;;5030298;28;20903;-58
2023/02/12 01:20:30;;;;;;;35.23;17.80;;;6.70;1.00;;;;;;5029894;28;20402;-58
2023/02/12 01:22:55;;;;;;;39.00;18.55;;;6.60;1.00;;;;;;5029541;28;20899;-59
2023/02/12 01:25:21;;;;;;;36.03;17.60;;;6.80;1.00;;;;;;5029373;28;20876;-58
2023/02/12 01:27:47;;;;;;;31.85;17.25;;;6.70;1.00;;;;;;5030090;28;20395;-58
2023/02/12 01:30:14;;;;;;;32.87;17.60;;;8.40;1.00;;;;;;5029082;28;20426;-58
2023/02/12 01:32:40;;;;;;;38.90;18.90;;;6.80;1.00;;;;;;5029280;28;20399;-58
2023/02/12 01:35:08;;;;;;;35.93;18.40;;;8.10;1.00;;;;;;5030063;28;20398;-58
2023/02/12 01:37:36;;;;;;;41.30;20.60;;;8.00;1.00;;;;;;5029079;28;20399;-58
2023/02/12 01:40:03;;;;;;;34.13;18.15;;;7.10;1.00;;;;;;5029691;28;20482;-58
2023/02/12 01:42:28;;;;;;;35.65;17.88;;;7.10;1.00;;;;;;5029091;28;20406;-59
2023/02/12 01:45:12;;;;;;;33.93;17.30;;;7.10;1.00;;;;;;5029581;28;20395;-58
2023/02/12 01:47:43;;;;;;;40.92;19.27;;;7.00;1.00;;;;;;5028357;28;20403;-58
2023/02/12 01:50:13;;;;;;;37.75;19.10;;;8.10;1.00;;;;;;5029668;28;20915;-58
2023/02/12 01:52:44;;;;;;;38.00;16.05;;;6.70;1.00;;;;;;5028971;28;20401;-58
2023/02/12 01:55:10;;;;;;;36.90;17.67;;;6.70;1.00;;;;;;5029950;28;20402;-59
2023/02/12 01:57:41;;;;;;;37.33;16.87;;;6.80;1.00;;;;;;5028551;28;20461;-59
2023/02/12 02:00:11;;;;;;;32.50;17.25;;;7.60;1.00;;;;;;5029733;28;20401;-58
2023/02/12 02:02:38;;;;;;;35.25;18.80;;;6.70;1.00;;;;;;5028412;28;20423;-58
2023/02/12 02:05:05;;;;;;;33.70;16.67;;;6.70;1.00;;;;;;5029489;28;20474;-58
2023/02/12 02:07:32;;;;;;;34.80;18.33;;;6.80;1.00;;;;;;5028579;28;20391;-58
2023/02/12 02:09:58;;;;;;;42.17;18.85;;;7.40;1.00;;;;;;5029625;28;20469;-58
2023/02/12 02:15:13;;;;;;;34.20;17.92;;;6.80;1.00;;;;;;5029270;28;20406;-58
2023/02/12 02:17:52;;;;;;;44.95;20.13;;;6.70;1.00;;;;;;5028479;28;20434;-59
2023/02/12 02:20:55;;;;;;;35.53;16.88;;;6.70;1.00;;;;;;5029100;28;20439;-58
2023/02/12 02:23:59;;;;;;;36.08;18.05;;;6.60;1.00;;;;;;5022957;28;20450;-58
2023/02/12 02:26:57;;;;;;;38.00;18.10;;;6.60;1.00;;;;;;5028055;28;20409;-58
2023/02/12 02:29:59;;;;;;;38.33;19.25;;;6.60;1.00;;;;;;5028162;28;20415;-58
2023/02/12 02:32:30;;;;;;;34.67;16.90;;;6.60;1.00;;;;;;5012789;28;20418;-59
2023/02/12 02:35:06;;;;;;;37.65;18.58;;;6.60;1.00;;;;;;5028835;28;20399;-58
2023/02/12 02:38:04;;;;;;;37.35;17.90;;;6.50;1.00;;;;;;5028364;28;20421;-58
2023/02/12 02:40:48;;;;;;;35.08;16.90;;;6.70;1.00;;;;;;5029015;28;20403;-58
2023/02/12 02:43:30;;;;;;;32.07;16.90;;;6.80;1.00;;;;;;5016960;28;20795;-58
2023/02/12 02:46:08;;;;;;;34.50;17.67;;;6.70;1.00;;;;;;5008143;28;20409;-58
2023/02/12 02:48:43;;;;;;;36.47;17.25;;;6.60;1.00;;;;;;5031824;28;20417;-58
2023/02/12 02:51:13;;;;;;;37.03;18.40;;;6.70;1.00;;;;;;5033194;28;20473;-58
2023/02/12 02:53:53;;;;;;;39.42;18.83;;;6.70;1.00;;;;;;5032315;28;20406;-58
2023/02/12 02:56:22;;;;;;;35.38;17.73;;;6.70;1.00;;;;;;5033079;28;20848;-58
2023/02/12 02:58:52;;;;;;;34.00;18.08;;;7.50;1.00;;;;;;5032581;28;20387;-58
2023/02/12 03:01:28;;;;;;;35.00;17.57;;;6.80;1.00;;;;;;5032882;28;20403;-59
2023/02/12 03:04:05;;;;;;;39.15;19.50;;;6.80;1.00;;;;;;5033325;28;20397;-58
2023/02/12 03:06:34;;;;;;;39.22;17.95;;;6.70;1.00;;;;;;5032278;28;20466;-59
2023/02/12 03:09:11;;;;;;;37.92;18.58;;;6.70;1.00;;;;;;5031923;28;20410;-58
2023/02/12 03:11:36;;;;;;;35.35;17.30;;;6.50;1.00;;;;;;5031956;28;20494;-59
2023/02/12 03:14:08;;;;;;;32.30;16.60;;;7.90;1.00;;;;;;5032642;28;20467;-59
2023/02/12 03:16:46;;;;;;;35.00;17.13;;;7.20;1.00;;;;;;5031956;28;20395;-58
2023/02/12 03:19:43;;;;;;;40.05;19.48;;;6.50;1.00;;;;;;5032575;28;20577;-58
2023/02/12 03:22:14;;;;;;;36.97;17.48;;;6.60;1.00;;;;;;5031398;28;20411;-59
2023/02/12 03:24:45;;;;;;;36.80;17.35;;;8.70;1.00;;;;;;5031162;28;20883;-59
2023/02/12 03:27:21;;;;;;;32.38;17.50;;;6.70;1.00;;;;;;5032229;28;20418;-58
2023/02/12 03:29:47;;;;;;;37.33;18.30;;;6.60;1.00;;;;;;5032518;28;20553;-58
2023/02/12 03:32:32;;;;;;;36.17;18.63;;;7.80;1.00;;;;;;5032716;28;20466;-58
2023/02/12 03:35:31;;;;;;;33.40;17.23;;;6.60;1.00;;;;;;5032433;28;20399;-59
2023/02/12 03:38:33;;;;;;;33.13;17.70;;;6.60;1.00;;;;;;5032213;28;20398;-58
2023/02/12 03:41:06;;;;;;;39.63;18.50;;;6.60;1.00;;;;;;5032152;28;20804;-58
2023/02/12 03:44:04;;;;;;;35.50;17.40;;;6.50;1.00;;;;;;5031158;28;20427;-58
2023/02/12 03:47:11;;;;;;;36.90;18.20;;;6.70;11.40;;;;;;5031123;28;20506;-58
2023/02/12 03:49:55;;;;;;;36.90;17.52;;;6.80;1.00;;;;;;5028074;28;20909;-57
2023/02/12 03:52:21;;;;;;;38.95;18.20;;;6.70;1.00;;;;;;5031131;28;20895;-58
2023/02/12 03:54:47;;;;;;;34.75;16.92;;;6.80;1.00;;;;;;5031381;28;20391;-58
2023/02/12 03:57:20;;;;;;;35.65;18.10;;;6.80;1.00;;;;;;5031828;28;20395;-57
2023/02/12 03:59:47;;;;;;;36.35;17.92;;;8.30;1.00;;;;;;5031302;28;20403;-57
2023/02/12 04:02:15;;;;;;;40.25;18.83;;;7.00;1.00;;;;;;5031949;28;20466;-57
2023/02/12 04:04:42;;;;;;;36.90;17.23;;;7.10;1.00;;;;;;5030849;28;20534;-57
2023/02/12 04:07:09;;;;;;;33.88;18.35;;;6.90;1.00;;;;;;5031742;28;20391;-57
2023/02/12 04:09:36;;;;;;;38.40;17.48;;;8.00;1.00;;;;;;5030663;28;20415;-58
2023/02/12 04:12:20;;;;;;;31.75;17.05;;;8.80;1.00;;;;;;5031240;28;20407;-58
2023/02/12 04:15:18;;;;;;;35.53;15.90;;;7.10;1.00;;;;;;5022696;28;20399;-58
2023/02/12 04:18:03;;;;;;;38.85;18.38;;;7.20;1.00;;;;;;5013483;28;20526;-57
2023/02/12 04:21:14;;;;;;;36.33;17.27;;;7.30;1.00;;;;;;5030315;28;20407;-57
2023/02/12 04:24:06;;;;;;;34.78;18.38;;;7.30;1.00;;;;;;4977021;28;20403;-58
2023/02/12 04:26:49;;;;;;;35.78;17.83;;;7.30;1.00;;;;;;5030651;28;20474;-58
2023/02/12 04:29:53;;;;;;;38.40;17.98;;;7.20;1.00;;;;;;5031291;28;20395;-58
2023/02/12 04:32:18;;;;;;;35.23;17.10;;;7.10;1.00;;;;;;5013873;28;20407;-58
2023/02/12 04:34:56;;;;;;;35.17;17.42;;;6.90;1.00;;;;;;5029840;28;21259;-58
2023/02/12 04:37:29;;;;;;;35.00;17.60;;;6.80;1.00;;;;;;5030632;28;20399;-57
2023/02/12 04:40:00;;;;;;;35.80;17.50;;;6.80;1.00;;;;;;5030272;28;20843;-57
2023/02/12 04:42:25;;;;;;;38.42;17.88;;;6.80;1.00;;;;;;5025384;28;20416;-57
2023/02/12 04:44:51;;;;;;;35.95;17.83;;;6.90;1.00;;;;;;5031034;28;20494;-57
2023/02/12 04:47:16;;;;;;;36.40;16.90;;;8.90;1.00;;;;;;5031088;28;20403;-57
2023/02/12 04:49:42;;;;;;;34.25;17.08;;;8.00;1.00;;;;;;5030062;28;20454;-57
2023/02/12 04:52:08;;;;;;;33.57;17.03;;;6.70;1.00;;;;;;5013122;28;20469;-57
2023/02/12 04:54:34;;;;;;;36.30;18.38;;;7.50;1.00;;;;;;5030384;28;20395;-57
2023/02/12 04:57:00;;;;;;;37.25;18.00;;;6.70;1.00;;;;;;5030495;28;20388;-58
2023/02/12 04:59:26;;;;;;;32.05;17.55;;;6.60;1.00;;;;;;5030269;28;20396;-59
2023/02/12 05:01:51;;;;;;;36.33;18.47;;;6.60;1.00;;;;;;5030833;28;20434;-59
2023/02/12 05:04:18;;;;;;;40.88;19.30;;;6.60;1.00;;;;;;5029723;28;20387;-59
2023/02/12 05:06:44;;;;;;;37.28;17.00;;;6.60;1.00;;;;;;5029521;28;20430;-59
2023/02/12 05:09:17;;;;;;;38.85;18.70;;;6.60;1.00;;;;;;5030064;28;20391;-57
2023/02/12 05:11:43;;;;;;;33.73;19.33;;;6.60;1.00;;;;;;5029814;28;20434;-57
2023/02/12 05:14:10;;;;;;;34.55;18.02;;;6.50;1.00;;;;;;5030498;28;20430;-57
2023/02/12 05:16:35;;;;;;;33.58;18.33;;;6.40;1.00;;;;;;5029649;28;20488;-57
2023/02/12 05:19:01;;;;;;;36.58;18.58;;;6.40;1.00;;;;;;5029760;28;20415;-57
2023/02/12 05:21:27;;;;;;;37.70;18.10;;;6.30;58.70;;;;;;5029489;28;20405;-57
2023/02/12 05:23:52;;;;;;;35.15;18.55;;;7.30;38.20;;;;;;5030298;28;20395;-57
2023/02/12 05:26:27;;;;;;;36.60;19.45;;;7.90;58.70;;;;;;5106667;27;20380;-59
2023/02/12 05:28:53;;;;;;;38.43;18.43;;;7.60;95.60;;;;;;5103160;28;20393;-59
2023/02/12 05:31:19;;;;;;;36.13;17.90;;;6.30;99.90;;;;;;5107447;28;20931;-59
2023/02/12 05:33:46;;;;;;;37.08;18.17;;;6.30;99.90;;;;;;5099740;28;20425;-59
2023/02/12 05:36:19;;;;;;;38.35;19.27;;;6.50;99.90;;;;;;5098123;28;20397;-59
2023/02/12 05:38:45;;;;;;;37.40;19.58;;;6.40;52.80;;;;;;5089945;28;20408;-59
2023/02/12 05:41:14;;;;;;;42.20;20.80;;;8.60;51.70;;;;;;5105364;28;20385;-59
2023/02/12 05:43:41;;;;;;;36.78;18.02;;;6.40;84.80;;;;;;5103437;28;20385;-59
2023/02/12 05:46:07;;;;;;;32.30;17.83;;;6.30;99.90;;;;;;5106142;28;20417;-59
2023/02/12 05:48:34;;;;;;;33.90;18.50;;;6.20;99.90;;;;;;5086820;28;20444;-59
2023/02/12 05:51:09;;;;;;;40.42;19.17;;;7.90;99.90;;;;;;5106549;28;20472;-59
2023/02/12 05:53:36;;;;;;;38.83;19.10;;;6.80;99.90;;;;;;5097772;28;20390;-59
2023/02/12 05:56:17;;;;;;;37.45;18.80;;;6.20;99.90;;;;;;5106937;28;20432;-59
2023/02/12 05:58:45;;;;;;;41.42;18.83;;;6.50;99.90;;;;;;5077886;28;20382;-60
2023/02/12 06:01:25;;;;;;;38.63;18.70;;;6.30;99.90;;;;;;5104520;28;20438;-60
2023/02/12 06:03:50;;;;;;;36.95;17.55;;;6.30;99.90;;;;;;5085414;28;20375;-59
2023/02/12 06:06:16;;;;;;;37.13;18.88;;;7.30;99.90;;;;;;5086191;28;20763;-59
2023/02/12 06:08:42;;;;;;;37.77;17.90;;;6.30;99.90;;;;;;5085450;28;20478;-60
2023/02/12 06:11:12;;;;;;;39.08;18.75;;;6.40;99.90;;;;;;5080031;28;20397;-59
2023/02/12 06:13:37;;;;;;;35.60;18.58;;;7.20;99.90;;;;;;5099777;28;20389;-59
2023/02/12 06:16:04;;;;;;;34.57;17.70;;;6.30;99.90;;;;;;5093840;28;20393;-59
2023/02/12 06:18:30;;;;;;;35.50;18.40;;;6.30;99.90;;;;;;5096007;28;20412;-59
2023/02/12 06:20:56;;;;;;;38.67;19.30;;;6.20;99.90;;;;;;5099937;28;20391;-58
2023/02/12 06:23:23;;;;;;;34.93;18.40;;;7.00;99.90;;;;;;5103038;28;20387;-59
2023/02/12 06:25:54;;;;;;;36.40;18.52;;;6.10;99.90;;;;;;5103025;28;20478;-59
2023/02/12 06:28:19;;;;;;;38.38;18.55;;;6.40;99.90;;;;;;5100027;28;20438;-59
2023/02/12 06:30:46;;;;;;;42.17;20.63;;;6.10;99.90;;;;;;5085281;28;20413;-59
2023/02/12 06:33:12;;;;;;;39.60;20.20;;;6.10;99.90;;;;;;5104152;28;20381;-59
2023/02/12 06:35:38;;;;;;;45.97;21.38;;;6.10;99.90;;;;;;5099610;28;20387;-59
2023/02/12 06:38:04;;;;;;;40.85;19.52;;;6.20;99.90;;;;;;5090916;28;20390;-59
2023/02/12 06:40:30;;;;;;;42.35;19.98;;;6.30;99.90;;;;;;5061975;28;20414;-59
2023/02/12 06:42:55;;;;;;;46.30;22.93;;;8.00;99.90;;;;;;5092287;28;20877;-59
2023/02/12 06:45:22;;;;;;;42.47;22.33;;;6.30;99.90;;;;;;5075664;28;20409;-59
2023/02/12 06:47:48;;;;;;;46.72;23.17;;;7.40;99.90;;;;;;5088955;28;20390;-59
2023/02/12 06:50:14;;;;;;;45.17;22.53;;;6.40;99.90;;;;;;5070811;28;20748;-59
2023/02/12 06:52:39;;;;;;;42.17;20.90;;;6.40;99.90;;;;;;5067758;28;20398;-59
2023/02/12 06:55:05;;;;;;;41.40;20.40;;;6.40;99.90;;;;;;5068623;28;20471;-59
2023/02/12 06:57:31;;;;;;;34.80;18.88;;;6.30;99.90;;;;;;5062954;28;20411;-59
2023/02/12 06:59:56;;;;;;;34.58;18.30;;;6.60;99.90;;;;;;5061399;28;20876;-59
2023/02/12 07:02:22;;;;;;;37.43;18.73;;;6.90;99.90;;;;;;5061478;28;20427;-59
2023/02/12 07:04:47;;;;;;;32.47;18.10;;;7.20;99.90;;;;;;5058501;28;20420;-58
2023/02/12 07:07:13;;;;;;;41.63;19.23;;;6.60;99.90;;;;;;5063411;28;20407;-58
2023/02/12 07:09:39;;;;;;;33.15;17.42;;;6.60;99.90;;;;;;5066873;28;20450;-59
2023/02/12 07:12:04;;;;;;;41.70;19.40;;;8.20;85.70;;;;;;5063894;28;20390;-58
2023/02/12 07:14:30;;;;;;;34.80;18.63;;;6.60;99.90;;;;;;5065634;28;20614;-59
2023/02/12 07:16:56;;;;;;;35.27;18.63;;;6.60;47.10;;;;;;5068128;28;20415;-63
2023/02/12 07:19:29;;;;;;;35.42;17.85;;;6.50;34.00;;;;;;5062622;28;20868;-59
2023/02/12 07:21:55;;;;;;;39.17;19.42;;;7.10;41.20;;;;;;5064019;28;20423;-59
2023/02/12 07:24:21;;;;;;;37.63;19.10;;;8.00;28.30;;;;;;5065763;28;20427;-59
2023/02/12 07:26:46;;;;;;;36.17;18.43;;;6.50;46.10;;;;;;5063687;28;20686;-59
2023/02/12 07:29:12;;;;;;;34.95;18.58;;;6.50;61.90;;;;;;5059153;28;20437;-59
2023/02/12 07:31:38;;;;;;;35.57;18.97;;;6.60;68.80;;;;;;5062240;28;20393;-62
2023/02/12 07:34:04;;;;;;;35.67;18.40;;;6.50;98.80;;;;;;5066700;28;20410;-56
2023/02/12 07:36:31;;;;;;;37.83;19.67;;;6.60;99.90;;;;;;5058947;28;20392;-57
2023/02/12 07:38:58;;;;;;;39.15;19.70;;;6.70;42.90;;;;;;5062665;28;20395;-57
2023/02/12 07:41:26;;;;;;;41.28;20.23;;;6.80;2.40;;;;;;5063588;28;20378;-57
2023/02/12 07:43:57;;;;;;;37.63;20.05;;;6.90;1.00;;;;;;5059309;28;20927;-58
2023/02/12 07:46:29;;;;;;;40.20;19.63;;;6.90;1.00;;;;;;5073152;28;20412;-58
2023/02/12 07:48:57;;;;;;;36.35;18.70;;;6.90;1.00;;;;;;5067197;28;20461;-59
2023/02/12 07:51:23;;;;;;;41.30;20.33;;;6.90;1.00;;;;;;5068597;28;20395;-59
2023/02/12 07:53:49;;;;;;;43.08;21.40;;;7.00;1.00;;;;;;5078603;28;20785;-59
2023/02/12 07:56:18;;;;;;;39.42;19.98;;;7.80;1.00;;;;;;5072635;28;20406;-59
2023/02/12 07:58:46;;;;;;;34.80;19.50;;;7.10;1.00;;;;;;5071395;28;20503;-59
2023/02/12 08:01:21;;;;;;;39.63;20.67;;;7.80;1.00;;;;;;5068510;28;20400;-60
2023/02/12 08:03:48;;;;;;;41.00;21.90;;;7.10;1.00;;;;;;5069440;28;20482;-60
2023/02/12 08:06:17;;;;;;;39.88;19.85;;;7.30;1.00;;;;;;5066302;28;20423;-60
2023/02/12 08:08:44;;;;;;;42.55;20.00;;;7.20;1.00;;;;;;5070714;28;20384;-59
2023/02/12 08:11:11;;;;;;;40.80;20.75;;;7.50;1.00;;;;;;5067970;28;20480;-59
2023/02/12 08:13:37;;;;;;;38.00;18.88;;;8.60;1.00;;;;;;5076586;28;20401;-60
2023/02/12 08:16:06;;;;;;;36.65;19.73;;;7.20;1.00;;;;;;5061587;28;20396;-59
2023/02/12 08:18:32;;;;;;;39.50;19.87;;;7.10;1.00;;;;;;5072937;28;20397;-56
2023/02/12 08:21:06;;;;;;;40.13;20.55;;;7.10;1.00;;;;;;5078861;28;20402;-56
2023/02/12 08:23:32;;;;;;;36.95;20.67;;;7.40;1.00;;;;;;5069338;28;20405;-56
2023/02/12 08:26:13;;;;;;;41.55;20.45;;;7.10;1.00;;;;;;5070800;28;20488;-57
2023/02/12 08:28:48;;;;;;;41.63;20.17;;;7.30;1.00;;;;;;5065944;28;20403;-56
2023/02/12 08:31:18;;;;;;;41.47;21.45;;;7.50;1.00;;;;;;5075167;28;20398;-56
2023/02/12 08:33:45;;;;;;;40.28;20.75;;;7.70;1.00;;;;;;5086387;28;21000;-57
2023/02/12 08:36:14;;;;;;;40.70;20.27;;;8.20;1.00;;;;;;5070586;28;20888;-56
2023/02/12 08:38:40;;;;;;;38.92;20.15;;;8.00;1.00;;;;;;5065070;28;20408;-57
2023/02/12 08:41:12;;;;;;;39.45;20.70;;;8.00;1.00;;;;;;5074741;28;20392;-57
2023/02/12 08:43:38;;;;;;;40.92;22.02;;;8.00;1.00;;;;;;5078381;28;20484;-58
2023/02/12 08:46:10;;;;;;;40.57;21.30;;;8.10;1.00;;;;;;5078317;28;20415;-57
2023/02/12 08:48:36;;;;;;;44.43;20.70;;;8.20;1.00;;;;;;5063463;28;20490;-57
2023/02/12 08:51:06;;;;;;;43.03;21.73;;;8.50;1.00;;;;;;5074046;28;20457;-58
2023/02/12 08:53:32;;;;;;;36.97;19.92;;;9.20;1.00;;;;;;5086526;28;20531;-57
2023/02/12 08:55:58;;;;;;;47.90;21.58;;;8.40;1.00;;;;;;5062928;28;20420;-57
2023/02/12 08:58:23;;;;;;;44.85;21.88;;;9.10;1.00;;;;;;5067660;28;20480;-57
2023/02/12 09:00:49;;;;;;;40.17;21.10;;;10.00;1.00;;;;;;5066020;28;20410;-57
2023/02/12 09:03:15;;;;;;;40.67;20.33;;;8.60;1.00;;;;;;5067711;28;20392;-57
2023/02/12 09:05:41;;;;;;;42.83;20.63;;;8.60;1.00;;;;;;5070110;28;20957;-57
2023/02/12 09:08:07;;;;;;;40.40;19.98;;;8.40;1.00;;;;;;5066776;28;20405;-57
2023/02/12 09:10:34;;;;;;;40.53;20.30;;;8.20;1.00;;;;;;5073406;28;20394;-58
2023/02/12 09:12:59;;;;;;;42.45;20.98;;;8.30;1.00;;;;;;5069524;28;20481;-57
2023/02/12 09:15:25;;;;;;;43.20;20.80;;;8.20;1.00;;;;;;5074183;28;20825;-57
2023/02/12 09:17:50;;;;;;;44.83;21.85;;;8.20;1.00;;;;;;5063385;28;20399;-57
2023/02/12 09:20:16;;;;;;;40.63;20.27;;;8.30;1.00;;;;;;5062305;28;20403;-56
2023/02/12 09:22:42;;;;;;;41.90;20.88;;;8.40;1.00;;;;;;5063042;28;20396;-56
2023/02/12 09:25:07;;;;;;;46.70;23.30;;;8.30;1.00;;;;;;5063318;28;20437;-57
2023/02/12 09:27:33;;;;;;;42.77;20.50;;;8.40;1.00;;;;;;5067224;28;20401;-57
2023/02/12 09:29:58;;;;;;;45.15;21.58;;;8.50;1.00;;;;;;5061716;28;20432;-58
2023/02/12 09:32:24;;;;;;;45.53;23.13;;;8.70;1.00;;;;;;5066693;28;20390;-58
2023/02/12 09:34:49;;;;;;;43.80;23.40;;;8.80;1.00;;;;;;5081700;28;20403;-61
2023/02/12 09:37:15;;;;;;;38.90;20.13;;;10.10;1.00;;;;;;5078033;28;20569;-59
2023/02/12 09:39:41;;;;;;;44.40;22.27;;;8.90;1.00;;;;;;5075363;28;20921;-58
2023/02/12 09:42:42;;;;;;;43.05;22.20;;;9.20;1.00;;;;;;5082116;28;20389;-59
2023/02/12 09:45:22;;;;;;;37.90;19.45;;;9.60;1.00;;;;;;5075593;28;20422;-59
2023/02/12 09:47:55;;;;;;;46.60;23.00;;;9.70;1.00;;;;;;5080552;28;20686;-58
2023/02/12 09:50:56;;;;;;;44.10;21.17;;;9.80;1.00;;;;;;5084420;28;20416;-57
2023/02/12 09:53:26;;;;;;;42.35;22.33;;;10.00;1.00;;;;;;5082899;28;21034;-55
2023/02/12 09:55:52;;;;;;;44.17;21.60;;;10.10;1.00;;;;;;5074494;28;20417;-56
2023/02/12 09:58:32;;;;;;;40.17;19.75;;;10.20;1.00;;;;;;5069051;28;20489;-57
2023/02/12 10:01:00;;;;;;;39.75;20.17;;;10.40;1.00;;;;;;5070522;28;20407;-57
2023/02/12 10:03:30;;;;;;;46.17;20.65;;;10.60;1.00;;;;;;5073414;28;20926;-57
2023/02/12 10:06:03;;;;;;;41.00;19.30;;;10.60;1.00;;;;;;5067075;28;20410;-58
2023/02/12 10:09:00;;;;;;;39.28;19.42;;;10.60;1.00;;;;;;5070045;28;20424;-57
2023/02/12 10:11:47;;;;;;;40.58;19.50;;;10.80;1.00;;;;;;5056333;28;20406;-57
2023/02/12 10:14:48;;;;;;;39.37;20.37;;;10.80;1.00;;;;;;5077723;28;20989;-58
2023/02/12 10:17:44;;;;;;;38.80;18.67;;;11.00;1.00;;;;;;5083503;28;20788;-58
2023/02/12 10:20:23;;;;;;;43.28;19.73;;;11.10;1.00;;;;;;5078847;28;20401;-59
2023/02/12 10:23:04;;;;;;;38.85;19.15;;;11.20;1.00;;;;;;5068074;28;20919;-58
2023/02/12 10:25:56;;;;;;;36.80;18.85;;;11.30;1.00;;;;;;5066553;28;20500;-58
2023/02/12 10:28:31;;;;;;;35.22;16.27;;;11.10;1.00;;;;;;5067473;28;20959;-56
2023/02/12 10:31:03;;;;;;;30.95;16.63;;;11.00;1.00;;;;;;5074554;28;20968;-58
2023/02/12 10:33:47;;;;;;;32.83;15.70;;;10.90;1.00;;;;;;5066440;28;20409;-57
2023/02/12 10:36:25;;;;;;;30.88;14.50;;;10.80;1.00;;;;;;5067564;28;20414;-59
2023/02/12 10:38:57;;;;;;;26.40;12.70;;;10.70;1.00;;;;;;5089523;28;20386;-59
2023/02/12 10:41:26;;;;;;;27.77;14.10;;;10.70;1.00;;;;;;5092322;28;20390;-60
2023/02/12 10:43:52;;;;;;;29.03;15.13;;;10.80;1.00;;;;;;5070687;28;20487;-59
2023/02/12 10:46:18;;;;;;;33.53;16.65;;;10.70;1.00;;;;;;5078030;28;20813;-58
2023/02/12 10:48:46;;;;;;;36.13;15.90;;;10.70;1.00;;;;;;5090458;28;20801;-58
2023/02/12 10:51:31;;;;;;;32.83;15.35;;;10.80;1.00;;;;;;5091605;28;20834;-58
2023/02/12 10:54:16;;;;;;;32.20;15.15;;;10.90;1.00;;;;;;5078119;28;20392;-59
2023/02/12 10:56:42;;;;;;;29.27;13.87;;;10.80;1.00;;;;;;5063953;28;20950;-59
2023/02/12 10:59:23;;;;;;;29.67;13.57;;;10.70;1.00;;;;;;5069748;28;20473;-57
2023/02/12 11:01:50;;;;;;;20.42;9.40;;;10.60;1.00;;;;;;5070194;28;20850;-59
2023/02/12 11:04:32;;;;;;;25.33;11.25;;;10.40;1.00;;;;;;5083585;28;20410;-57
2023/02/12 11:07:00;;;;;;;18.38;7.70;;;10.20;1.00;;;;;;5067870;28;20445;-58
2023/02/12 11:09:34;;;;;;;19.20;8.27;;;10.00;1.00;;;;;;5056168;28;20430;-57
2023/02/12 11:12:01;;;;;;;18.00;8.63;;;9.90;1.00;;;;;;5071840;28;20808;-58
2023/02/12 11:14:28;;;;;;;20.83;10.40;;;9.60;1.00;;;;;;5062641;28;20435;-58
2023/02/12 11:16:55;;;;;;;22.13;8.32;;;9.60;1.00;;;;;;5060978;28;20408;-59
2023/02/12 11:19:27;;;;;;;20.92;8.23;;;9.90;1.00;;;;;;5070822;28;20900;-59
2023/02/12 11:22:09;;;;;;;18.10;8.65;;;9.60;1.00;;;;;;5079739;28;20374;-58
2023/02/12 11:24:36;;;;;;;20.58;8.30;;;9.60;1.00;;;;;;5090022;28;20422;-58
2023/02/12 11:27:22;;;;;;;19.25;8.10;;;9.60;1.00;;;;;;5084031;28;20471;-58
2023/02/12 11:30:09;;;;;;;21.80;9.30;;;9.70;1.00;;;;;;5087201;28;20437;-58
2023/02/12 11:32:35;;;;;;;21.00;9.45;;;9.80;1.00;;;;;;5084880;28;20899;-58
2023/02/12 11:35:16;;;;;;;19.20;7.35;;;9.90;1.00;;;;;;5090349;28;20883;-58
2023/02/12 11:37:44;;;;;;;19.45;9.10;;;10.10;1.00;;;;;;5088367;28;20902;-58
2023/02/12 11:40:23;;;;;;;22.02;10.20;;;10.20;1.00;;;;;;5090285;28;20386;-58
2023/02/12 11:42:53;;;;;;;24.95;10.23;;;10.40;1.00;;;;;;5089321;28;20394;-58
2023/02/12 11:45:21;;;;;;;24.08;10.30;;;10.20;1.00;;;;;;5087579;28;20459;-58
2023/02/12 11:47:47;;;;;;;19.98;9.07;;;10.40;1.00;;;;;;5077518;28;21020;-58
2023/02/12 11:50:29;;;;;;;19.05;7.32;;;10.60;1.00;;;;;;5067641;28;20544;-58
2023/02/12 11:53:01;;;;;;;16.02;7.10;;;10.50;1.00;;;;;;5063583;28;20481;-57
2023/02/12 11:55:37;;;;;;;13.55;5.45;;;10.50;1.00;;;;;;5060061;28;20413;-58
2023/02/12 11:58:15;;;;;;;11.43;4.53;;;10.30;1.00;;;;;;5066052;28;20447;-57
2023/02/12 12:01:03;;;;;;;9.80;4.30;;;10.10;1.00;;;;;;5058413;28;20429;-57
2023/02/12 12:03:50;;;;;;;9.30;3.00;;;10.10;1.00;;;;;;5061695;28;20480;-58
2023/02/12 12:06:30;;;;;;;9.35;3.50;;;10.30;1.00;;;;;;5071116;28;20500;-58
2023/02/12 12:09:14;;;;;;;7.97;3.15;;;10.30;1.00;;;;;;5066771;28;20454;-55
2023/02/12 12:12:03;;;;;;;9.32;3.47;;;10.30;1.00;;;;;;5079313;28;20393;-56
2023/02/12 12:19:51;;;;;;;7.75;3.20;;;10.30;1.00;;;;;;5062525;28;20845;-56
2023/02/12 12:20:18;;;;;;;10.07;3.40;;;10.60;1.00;;;;;;5068925;28;20453;-55
2023/02/12 12:23:03;;;;;;;9.03;3.43;;;10.90;1.00;;;;;;5055532;28;20396;-55
2023/02/12 12:25:35;;;;;;;10.95;3.80;;;11.30;1.00;;;;;;5059244;28;20426;-57
2023/02/12 12:28:17;;;;;;;10.15;4.15;;;11.80;1.00;;;;;;5067089;28;20857;-55
2023/02/12 12:31:10;;;;;;;9.93;3.50;;;11.80;1.00;;;;;;5058959;28;20852;-55
2023/02/12 12:34:04;;;;;;;10.13;3.40;;;11.60;1.00;;;;;;5069226;28;20459;-55
2023/02/12 12:36:55;;;;;;;8.80;3.22;;;11.60;1.00;;;;;;5049392;28;20449;-55
2023/02/12 12:40:01;;;;;;;8.20;2.85;;;11.90;1.00;;;;;;5051207;28;20406;-55
2023/02/12 12:42:39;;;;;;;8.38;2.72;;;11.80;1.00;;;;;;5078569;28;20489;-59
2023/02/12 12:45:55;;;;;;;6.90;2.63;;;11.70;1.00;;;;;;5070022;28;20754;-56
2023/02/12 12:48:50;;;;;;;9.20;3.30;;;11.40;1.00;;;;;;5066764;28;20401;-55
2023/02/12 12:51:57;;;;;;;8.80;3.10;;;11.40;1.00;;;;;;5067727;28;20487;-53
2023/02/12 12:54:39;;;;;;;8.50;3.28;;;11.40;1.00;;;;;;5073885;28;20881;-54
2023/02/12 12:57:08;;;;;;;8.20;2.90;;;11.30;1.00;;;;;;5071168;28;20403;-53
2023/02/12 12:59:52;;;;;;;8.43;2.70;;;11.40;1.00;;;;;;5078626;28;20949;-53
2023/02/12 13:02:48;;;;;;;8.75;2.60;;;11.40;1.00;;;;;;5090077;28;20398;-53
2023/02/12 13:05:43;;;;;;;7.47;2.70;;;11.50;1.00;;;;;;5068598;28;20570;-54
2023/02/12 13:08:36;;;;;;;8.13;2.90;;;11.50;1.00;;;;;;5075911;28;20423;-53
2023/02/12 13:11:43;;;;;;;8.75;3.25;;;11.50;1.00;;;;;;5069505;28;20790;-55
2023/02/12 13:14:56;;;;;;;7.70;2.80;;;11.60;1.00;;;;;;5070272;28;20406;-56
2023/02/12 13:17:49;;;;;;;8.50;2.88;;;11.60;1.00;;;;;;5055808;28;20916;-55
2023/02/12 13:20:44;;;;;;;9.07;3.17;;;11.10;1.00;;;;;;5054365;28;20778;-53